sensor_id;sensor_type;location;lat;lon;timestamp;P1;durP1;ratioP1;P2;durP2;ratioP2
6282;SDS011;3174;53.486;9.568;2023-12-20T00:01:22;5.70;;;1.73;;
6282;SDS011;3174;53.486;9.568;2023-12-20T00:03:51;7.43;;;1.50;;
6282;SDS011;3174;53.486;9.568;2023-12-20T00:06:19;2.60;;;1.20;;
6282;SDS011;3174;53.486;9.568;2023-12-20T00:08:47;5.13;;;1.17;;
6282;SDS011;3174;53.486;9.568;2023-12-20T00:11:16;3.30;;;1.00;;
6282;SDS011;3174;53.486;9.568;2023-12-20T00:13:45;6.80;;;1.30;;
6282;SDS011;3174;53.486;9.568;2023-12-20T00:16:17;4.33;;;1.50;;
6282;SDS011;3174;53.486;9.568;2023-12-20T00:18:45;13.87;;;1.97;;
6282;SDS011;3174;53.486;9.568;2023-12-20T00:21:14;6.30;;;1.47;;
6282;SDS011;3174;53.486;9.568;2023-12-20T00:23:42;3.17;;;1.30;;
6282;SDS011;3174;53.486;9.568;2023-12-20T00:26:10;2.17;;;1.20;;
6282;SDS011;3174;53.486;9.568;2023-12-20T00:28:39;7.70;;;1.40;;
6282;SDS011;3174;53.486;9.568;2023-12-20T00:31:07;10.07;;;1.63;;
6282;SDS011;3174;53.486;9.568;2023-12-20T00:33:36;4.50;;;1.07;;
6282;SDS011;3174;53.486;9.568;2023-12-20T00:36:04;6.37;;;1.30;;
6282;SDS011;3174;53.486;9.568;2023-12-20T00:38:33;7.80;;;1.20;;
6282;SDS011;3174;53.486;9.568;2023-12-20T00:41:01;6.13;;;1.40;;
6282;SDS011;3174;53.486;9.568;2023-12-20T00:43:29;6.83;;;1.80;;
6282;SDS011;3174;53.486;9.568;2023-12-20T00:45:58;8.00;;;1.33;;
6282;SDS011;3174;53.486;9.568;2023-12-20T00:48:27;4.03;;;1.10;;
6282;SDS011;3174;53.486;9.568;2023-12-20T00:50:56;7.33;;;1.60;;
6282;SDS011;3174;53.486;9.568;2023-12-20T00:53:25;8.97;;;1.43;;
6282;SDS011;3174;53.486;9.568;2023-12-20T00:55:53;4.57;;;1.40;;
6282;SDS011;3174;53.486;9.568;2023-12-20T00:58:21;8.10;;;1.50;;
6282;SDS011;3174;53.486;9.568;2023-12-20T01:00:49;8.13;;;1.77;;
6282;SDS011;3174;53.486;9.568;2023-12-20T01:03:19;6.07;;;1.50;;
6282;SDS011;3174;53.486;9.568;2023-12-20T01:05:47;6.53;;;1.40;;
6282;SDS011;3174;53.486;9.568;2023-12-20T01:08:15;9.60;;;1.57;;
6282;SDS011;3174;53.486;9.568;2023-12-20T01:10:43;6.30;;;1.40;;
6282;SDS011;3174;53.486;9.568;2023-12-20T01:13:13;8.37;;;1.60;;
6282;SDS011;3174;53.486;9.568;2023-12-20T01:15:41;7.07;;;1.40;;
6282;SDS011;3174;53.486;9.568;2023-12-20T01:18:09;7.90;;;1.70;;
6282;SDS011;3174;53.486;9.568;2023-12-20T01:20:39;2.13;;;1.27;;
6282;SDS011;3174;53.486;9.568;2023-12-20T01:23:07;2.93;;;1.33;;
6282;SDS011;3174;53.486;9.568;2023-12-20T01:25:35;1.27;;;0.90;;
6282;SDS011;3174;53.486;9.568;2023-12-20T01:28:03;12.83;;;2.10;;
6282;SDS011;3174;53.486;9.568;2023-12-20T01:30:32;2.27;;;1.37;;
6282;SDS011;3174;53.486;9.568;2023-12-20T01:33:00;3.67;;;1.40;;
6282;SDS011;3174;53.486;9.568;2023-12-20T01:35:28;7.90;;;1.60;;
6282;SDS011;3174;53.486;9.568;2023-12-20T01:37:58;12.97;;;1.60;;
6282;SDS011;3174;53.486;9.568;2023-12-20T01:40:26;4.93;;;1.23;;
6282;SDS011;3174;53.486;9.568;2023-12-20T01:43:06;4.83;;;1.53;;
6282;SDS011;3174;53.486;9.568;2023-12-20T01:45:36;3.57;;;1.40;;
6282;SDS011;3174;53.486;9.568;2023-12-20T01:48:04;3.63;;;1.23;;
6282;SDS011;3174;53.486;9.568;2023-12-20T01:50:34;4.33;;;1.40;;
6282;SDS011;3174;53.486;9.568;2023-12-20T01:53:05;9.13;;;1.33;;
6282;SDS011;3174;53.486;9.568;2023-12-20T01:55:36;4.17;;;1.10;;
6282;SDS011;3174;53.486;9.568;2023-12-20T01:58:07;3.97;;;1.37;;
6282;SDS011;3174;53.486;9.568;2023-12-20T02:00:36;2.80;;;1.50;;
6282;SDS011;3174;53.486;9.568;2023-12-20T02:03:05;5.00;;;1.50;;
6282;SDS011;3174;53.486;9.568;2023-12-20T02:05:34;9.17;;;1.40;;
6282;SDS011;3174;53.486;9.568;2023-12-20T02:08:04;7.83;;;1.67;;
6282;SDS011;3174;53.486;9.568;2023-12-20T02:10:33;5.00;;;1.30;;
6282;SDS011;3174;53.486;9.568;2023-12-20T02:13:02;7.10;;;1.43;;
6282;SDS011;3174;53.486;9.568;2023-12-20T02:15:30;8.07;;;1.47;;
6282;SDS011;3174;53.486;9.568;2023-12-20T02:17:59;8.07;;;1.53;;
6282;SDS011;3174;53.486;9.568;2023-12-20T02:20:27;1.10;;;0.90;;
6282;SDS011;3174;53.486;9.568;2023-12-20T02:22:56;4.80;;;1.30;;
6282;SDS011;3174;53.486;9.568;2023-12-20T02:25:24;5.37;;;1.40;;
6282;SDS011;3174;53.486;9.568;2023-12-20T02:27:52;5.87;;;1.40;;
6282;SDS011;3174;53.486;9.568;2023-12-20T02:30:20;2.67;;;1.10;;
6282;SDS011;3174;53.486;9.568;2023-12-20T02:32:49;4.10;;;1.60;;
6282;SDS011;3174;53.486;9.568;2023-12-20T02:35:17;7.53;;;2.17;;
6282;SDS011;3174;53.486;9.568;2023-12-20T02:37:45;7.00;;;1.67;;
6282;SDS011;3174;53.486;9.568;2023-12-20T02:40:15;1.53;;;0.93;;
6282;SDS011;3174;53.486;9.568;2023-12-20T02:42:43;7.80;;;1.70;;
6282;SDS011;3174;53.486;9.568;2023-12-20T02:45:11;1.63;;;1.27;;
6282;SDS011;3174;53.486;9.568;2023-12-20T02:47:39;9.60;;;1.63;;
6282;SDS011;3174;53.486;9.568;2023-12-20T02:50:08;3.63;;;1.53;;
6282;SDS011;3174;53.486;9.568;2023-12-20T02:52:36;7.03;;;1.53;;
6282;SDS011;3174;53.486;9.568;2023-12-20T02:55:04;5.30;;;1.57;;
6282;SDS011;3174;53.486;9.568;2023-12-20T02:57:34;5.60;;;1.20;;
6282;SDS011;3174;53.486;9.568;2023-12-20T03:00:03;3.50;;;1.17;;
6282;SDS011;3174;53.486;9.568;2023-12-20T03:02:31;6.03;;;1.47;;
6282;SDS011;3174;53.486;9.568;2023-12-20T03:04:59;4.33;;;1.43;;
6282;SDS011;3174;53.486;9.568;2023-12-20T03:07:28;5.80;;;1.40;;
6282;SDS011;3174;53.486;9.568;2023-12-20T03:09:56;3.53;;;1.30;;
6282;SDS011;3174;53.486;9.568;2023-12-20T03:12:45;5.07;;;1.50;;
6282;SDS011;3174;53.486;9.568;2023-12-20T03:15:13;3.37;;;1.50;;
6282;SDS011;3174;53.486;9.568;2023-12-20T03:17:41;9.00;;;1.67;;
6282;SDS011;3174;53.486;9.568;2023-12-20T03:20:10;6.60;;;1.47;;
6282;SDS011;3174;53.486;9.568;2023-12-20T03:22:39;8.33;;;1.60;;
6282;SDS011;3174;53.486;9.568;2023-12-20T03:25:07;4.50;;;1.67;;
6282;SDS011;3174;53.486;9.568;2023-12-20T03:27:36;6.23;;;1.47;;
6282;SDS011;3174;53.486;9.568;2023-12-20T03:30:07;7.77;;;1.47;;
6282;SDS011;3174;53.486;9.568;2023-12-20T03:32:36;4.20;;;1.43;;
6282;SDS011;3174;53.486;9.568;2023-12-20T03:35:04;2.67;;;1.03;;
6282;SDS011;3174;53.486;9.568;2023-12-20T03:37:33;8.07;;;2.33;;
6282;SDS011;3174;53.486;9.568;2023-12-20T03:40:01;3.23;;;1.30;;
6282;SDS011;3174;53.486;9.568;2023-12-20T03:42:29;2.10;;;1.20;;
6282;SDS011;3174;53.486;9.568;2023-12-20T03:44:57;3.33;;;1.40;;
6282;SDS011;3174;53.486;9.568;2023-12-20T03:47:27;7.07;;;1.57;;
6282;SDS011;3174;53.486;9.568;2023-12-20T03:49:55;5.80;;;1.40;;
6282;SDS011;3174;53.486;9.568;2023-12-20T03:52:23;5.23;;;1.30;;
6282;SDS011;3174;53.486;9.568;2023-12-20T03:54:51;6.40;;;1.50;;
6282;SDS011;3174;53.486;9.568;2023-12-20T03:57:19;4.93;;;1.47;;
6282;SDS011;3174;53.486;9.568;2023-12-20T03:59:47;7.57;;;1.30;;
6282;SDS011;3174;53.486;9.568;2023-12-20T04:02:15;4.13;;;1.40;;
6282;SDS011;3174;53.486;9.568;2023-12-20T04:04:45;8.90;;;1.63;;
6282;SDS011;3174;53.486;9.568;2023-12-20T04:07:13;2.47;;;1.40;;
6282;SDS011;3174;53.486;9.568;2023-12-20T04:09:41;6.90;;;1.43;;
6282;SDS011;3174;53.486;9.568;2023-12-20T04:12:10;10.10;;;1.70;;
6282;SDS011;3174;53.486;9.568;2023-12-20T04:14:38;3.70;;;1.50;;
6282;SDS011;3174;53.486;9.568;2023-12-20T04:17:06;10.50;;;1.80;;
6282;SDS011;3174;53.486;9.568;2023-12-20T04:19:34;8.30;;;1.63;;
6282;SDS011;3174;53.486;9.568;2023-12-20T04:22:04;7.27;;;1.57;;
6282;SDS011;3174;53.486;9.568;2023-12-20T04:24:32;4.57;;;1.47;;
6282;SDS011;3174;53.486;9.568;2023-12-20T04:27:00;8.80;;;1.73;;
6282;SDS011;3174;53.486;9.568;2023-12-20T04:29:29;7.77;;;1.53;;
6282;SDS011;3174;53.486;9.568;2023-12-20T04:31:57;8.67;;;1.73;;
6282;SDS011;3174;53.486;9.568;2023-12-20T04:34:25;5.83;;;1.60;;
6282;SDS011;3174;53.486;9.568;2023-12-20T04:36:53;5.37;;;1.27;;
6282;SDS011;3174;53.486;9.568;2023-12-20T04:39:22;5.77;;;1.50;;
6282;SDS011;3174;53.486;9.568;2023-12-20T04:41:50;4.37;;;1.57;;
6282;SDS011;3174;53.486;9.568;2023-12-20T04:44:19;10.17;;;1.50;;
6282;SDS011;3174;53.486;9.568;2023-12-20T04:46:47;5.17;;;1.87;;
6282;SDS011;3174;53.486;9.568;2023-12-20T04:49:15;5.67;;;1.50;;
6282;SDS011;3174;53.486;9.568;2023-12-20T04:51:43;9.43;;;4.97;;
6282;SDS011;3174;53.486;9.568;2023-12-20T04:54:11;13.33;;;5.63;;
6282;SDS011;3174;53.486;9.568;2023-12-20T04:56:41;15.70;;;5.80;;
6282;SDS011;3174;53.486;9.568;2023-12-20T04:59:09;14.33;;;5.50;;
6282;SDS011;3174;53.486;9.568;2023-12-20T05:01:37;8.57;;;2.83;;
6282;SDS011;3174;53.486;9.568;2023-12-20T05:04:05;8.13;;;1.93;;
6282;SDS011;3174;53.486;9.568;2023-12-20T05:06:34;6.77;;;2.10;;
6282;SDS011;3174;53.486;9.568;2023-12-20T05:09:02;9.70;;;2.90;;
6282;SDS011;3174;53.486;9.568;2023-12-20T05:11:30;10.47;;;2.83;;
6282;SDS011;3174;53.486;9.568;2023-12-20T05:14:00;6.00;;;1.90;;
6282;SDS011;3174;53.486;9.568;2023-12-20T05:16:28;5.73;;;1.53;;
6282;SDS011;3174;53.486;9.568;2023-12-20T05:18:56;2.63;;;1.60;;
6282;SDS011;3174;53.486;9.568;2023-12-20T05:21:26;4.03;;;2.27;;
6282;SDS011;3174;53.486;9.568;2023-12-20T05:23:54;6.07;;;1.80;;
6282;SDS011;3174;53.486;9.568;2023-12-20T05:26:22;5.47;;;1.57;;
6282;SDS011;3174;53.486;9.568;2023-12-20T05:28:50;4.93;;;2.23;;
6282;SDS011;3174;53.486;9.568;2023-12-20T05:31:20;5.77;;;1.80;;
6282;SDS011;3174;53.486;9.568;2023-12-20T05:33:48;6.93;;;1.77;;
6282;SDS011;3174;53.486;9.568;2023-12-20T05:36:16;10.90;;;2.17;;
6282;SDS011;3174;53.486;9.568;2023-12-20T05:38:44;10.60;;;2.70;;
6282;SDS011;3174;53.486;9.568;2023-12-20T05:41:13;5.37;;;1.73;;
6282;SDS011;3174;53.486;9.568;2023-12-20T05:43:41;7.90;;;1.90;;
6282;SDS011;3174;53.486;9.568;2023-12-20T05:46:09;5.73;;;1.90;;
6282;SDS011;3174;53.486;9.568;2023-12-20T05:48:39;8.83;;;1.93;;
6282;SDS011;3174;53.486;9.568;2023-12-20T05:51:08;10.67;;;2.07;;
6282;SDS011;3174;53.486;9.568;2023-12-20T05:53:39;5.50;;;2.03;;
6282;SDS011;3174;53.486;9.568;2023-12-20T05:56:07;5.90;;;1.50;;
6282;SDS011;3174;53.486;9.568;2023-12-20T05:58:35;11.83;;;1.77;;
6282;SDS011;3174;53.486;9.568;2023-12-20T06:01:03;4.00;;;1.67;;
6282;SDS011;3174;53.486;9.568;2023-12-20T06:03:32;6.10;;;1.70;;
6282;SDS011;3174;53.486;9.568;2023-12-20T06:06:05;5.00;;;1.63;;
6282;SDS011;3174;53.486;9.568;2023-12-20T06:08:42;5.00;;;1.70;;
6282;SDS011;3174;53.486;9.568;2023-12-20T06:11:10;8.93;;;1.73;;
6282;SDS011;3174;53.486;9.568;2023-12-20T06:13:40;6.80;;;1.50;;
6282;SDS011;3174;53.486;9.568;2023-12-20T06:16:08;12.07;;;1.83;;
6282;SDS011;3174;53.486;9.568;2023-12-20T06:18:36;7.40;;;1.60;;
6282;SDS011;3174;53.486;9.568;2023-12-20T06:21:06;9.33;;;2.60;;
6282;SDS011;3174;53.486;9.568;2023-12-20T06:23:34;8.17;;;1.90;;
6282;SDS011;3174;53.486;9.568;2023-12-20T06:29:49;3.90;;;1.50;;
6282;SDS011;3174;53.486;9.568;2023-12-20T06:32:17;3.10;;;1.73;;
6282;SDS011;3174;53.486;9.568;2023-12-20T06:34:45;8.13;;;1.87;;
6282;SDS011;3174;53.486;9.568;2023-12-20T06:37:15;7.37;;;2.83;;
6282;SDS011;3174;53.486;9.568;2023-12-20T06:39:43;5.70;;;2.03;;
6282;SDS011;3174;53.486;9.568;2023-12-20T06:42:11;9.30;;;2.17;;
6282;SDS011;3174;53.486;9.568;2023-12-20T06:44:39;4.43;;;2.13;;
6282;SDS011;3174;53.486;9.568;2023-12-20T06:47:07;6.93;;;2.37;;
6282;SDS011;3174;53.486;9.568;2023-12-20T06:49:35;7.70;;;2.90;;
6282;SDS011;3174;53.486;9.568;2023-12-20T06:52:04;5.17;;;2.60;;
6282;SDS011;3174;53.486;9.568;2023-12-20T06:54:34;7.90;;;2.30;;
6282;SDS011;3174;53.486;9.568;2023-12-20T06:57:02;4.33;;;1.87;;
6282;SDS011;3174;53.486;9.568;2023-12-20T06:59:31;27.93;;;9.30;;
6282;SDS011;3174;53.486;9.568;2023-12-20T07:01:59;11.07;;;3.63;;
6282;SDS011;3174;53.486;9.568;2023-12-20T07:04:27;7.63;;;2.17;;
6282;SDS011;3174;53.486;9.568;2023-12-20T07:06:55;12.30;;;2.87;;
6282;SDS011;3174;53.486;9.568;2023-12-20T07:09:24;13.20;;;2.87;;
6282;SDS011;3174;53.486;9.568;2023-12-20T07:11:54;11.80;;;2.87;;
6282;SDS011;3174;53.486;9.568;2023-12-20T07:14:22;9.37;;;2.60;;
6282;SDS011;3174;53.486;9.568;2023-12-20T07:16:50;12.30;;;2.60;;
6282;SDS011;3174;53.486;9.568;2023-12-20T07:19:18;12.63;;;3.10;;
6282;SDS011;3174;53.486;9.568;2023-12-20T07:21:46;7.93;;;2.67;;
6282;SDS011;3174;53.486;9.568;2023-12-20T07:24:15;8.43;;;2.80;;
6282;SDS011;3174;53.486;9.568;2023-12-20T07:26:43;8.47;;;2.30;;
6282;SDS011;3174;53.486;9.568;2023-12-20T07:29:12;12.03;;;2.07;;
6282;SDS011;3174;53.486;9.568;2023-12-20T07:31:40;9.93;;;2.63;;
6282;SDS011;3174;53.486;9.568;2023-12-20T07:34:08;7.90;;;2.50;;
6282;SDS011;3174;53.486;9.568;2023-12-20T07:36:37;8.30;;;2.50;;
6282;SDS011;3174;53.486;9.568;2023-12-20T07:39:05;14.37;;;2.27;;
6282;SDS011;3174;53.486;9.568;2023-12-20T07:41:33;8.67;;;2.30;;
6282;SDS011;3174;53.486;9.568;2023-12-20T07:44:01;12.60;;;2.53;;
6282;SDS011;3174;53.486;9.568;2023-12-20T07:46:30;17.70;;;2.43;;
6282;SDS011;3174;53.486;9.568;2023-12-20T07:48:58;6.10;;;2.20;;
6282;SDS011;3174;53.486;9.568;2023-12-20T07:51:27;7.87;;;1.90;;
6282;SDS011;3174;53.486;9.568;2023-12-20T07:53:55;10.10;;;1.97;;
6282;SDS011;3174;53.486;9.568;2023-12-20T07:56:23;5.30;;;2.03;;
6282;SDS011;3174;53.486;9.568;2023-12-20T07:58:51;5.50;;;2.37;;
6282;SDS011;3174;53.486;9.568;2023-12-20T08:01:20;11.93;;;2.30;;
6282;SDS011;3174;53.486;9.568;2023-12-20T08:03:50;18.40;;;2.67;;
6282;SDS011;3174;53.486;9.568;2023-12-20T08:06:18;6.37;;;2.10;;
6282;SDS011;3174;53.486;9.568;2023-12-20T08:08:47;7.80;;;2.57;;
6282;SDS011;3174;53.486;9.568;2023-12-20T08:11:27;5.33;;;2.23;;
6282;SDS011;3174;53.486;9.568;2023-12-20T08:13:55;7.57;;;2.17;;
6282;SDS011;3174;53.486;9.568;2023-12-20T08:16:23;17.47;;;2.53;;
6282;SDS011;3174;53.486;9.568;2023-12-20T08:18:53;13.43;;;2.43;;
6282;SDS011;3174;53.486;9.568;2023-12-20T08:21:21;6.70;;;1.90;;
6282;SDS011;3174;53.486;9.568;2023-12-20T08:23:49;6.93;;;1.80;;
6282;SDS011;3174;53.486;9.568;2023-12-20T08:26:18;6.60;;;2.03;;
6282;SDS011;3174;53.486;9.568;2023-12-20T08:28:48;4.93;;;2.17;;
6282;SDS011;3174;53.486;9.568;2023-12-20T08:31:16;12.17;;;2.40;;
6282;SDS011;3174;53.486;9.568;2023-12-20T08:33:46;12.77;;;2.80;;
6282;SDS011;3174;53.486;9.568;2023-12-20T08:36:16;15.23;;;2.60;;
6282;SDS011;3174;53.486;9.568;2023-12-20T08:38:44;5.77;;;2.20;;
6282;SDS011;3174;53.486;9.568;2023-12-20T08:41:12;14.97;;;2.47;;
6282;SDS011;3174;53.486;9.568;2023-12-20T08:43:41;7.90;;;2.13;;
6282;SDS011;3174;53.486;9.568;2023-12-20T08:46:09;4.47;;;1.93;;
6282;SDS011;3174;53.486;9.568;2023-12-20T08:48:37;10.73;;;2.20;;
6282;SDS011;3174;53.486;9.568;2023-12-20T08:51:05;5.93;;;1.93;;
6282;SDS011;3174;53.486;9.568;2023-12-20T08:53:36;6.53;;;1.97;;
6282;SDS011;3174;53.486;9.568;2023-12-20T08:56:04;8.60;;;2.00;;
6282;SDS011;3174;53.486;9.568;2023-12-20T08:58:33;5.57;;;1.63;;
6282;SDS011;3174;53.486;9.568;2023-12-20T09:01:02;4.80;;;1.50;;
6282;SDS011;3174;53.486;9.568;2023-12-20T09:03:31;4.67;;;1.40;;
6282;SDS011;3174;53.486;9.568;2023-12-20T09:05:59;4.27;;;1.33;;
6282;SDS011;3174;53.486;9.568;2023-12-20T09:08:27;2.33;;;1.30;;
6282;SDS011;3174;53.486;9.568;2023-12-20T09:10:56;3.10;;;1.37;;
6282;SDS011;3174;53.486;9.568;2023-12-20T09:13:25;4.50;;;1.23;;
6282;SDS011;3174;53.486;9.568;2023-12-20T09:15:54;2.87;;;1.40;;
6282;SDS011;3174;53.486;9.568;2023-12-20T09:18:23;6.63;;;1.20;;
6282;SDS011;3174;53.486;9.568;2023-12-20T09:20:51;2.83;;;1.20;;
6282;SDS011;3174;53.486;9.568;2023-12-20T09:23:19;1.10;;;0.90;;
6282;SDS011;3174;53.486;9.568;2023-12-20T09:25:47;2.23;;;1.07;;
6282;SDS011;3174;53.486;9.568;2023-12-20T09:28:17;4.33;;;1.10;;
6282;SDS011;3174;53.486;9.568;2023-12-20T09:30:45;1.67;;;0.70;;
6282;SDS011;3174;53.486;9.568;2023-12-20T09:33:14;1.77;;;1.07;;
6282;SDS011;3174;53.486;9.568;2023-12-20T09:35:42;1.30;;;0.90;;
6282;SDS011;3174;53.486;9.568;2023-12-20T09:38:11;2.33;;;0.80;;
6282;SDS011;3174;53.486;9.568;2023-12-20T09:40:42;0.80;;;0.80;;
6282;SDS011;3174;53.486;9.568;2023-12-20T09:43:10;2.17;;;0.80;;
6282;SDS011;3174;53.486;9.568;2023-12-20T09:45:41;1.13;;;0.70;;
6282;SDS011;3174;53.486;9.568;2023-12-20T09:48:11;0.60;;;0.60;;
6282;SDS011;3174;53.486;9.568;2023-12-20T09:50:41;0.87;;;0.80;;
6282;SDS011;3174;53.486;9.568;2023-12-20T09:53:15;1.43;;;0.90;;
6282;SDS011;3174;53.486;9.568;2023-12-20T09:55:43;1.97;;;0.90;;
6282;SDS011;3174;53.486;9.568;2023-12-20T09:58:11;2.60;;;0.80;;
6282;SDS011;3174;53.486;9.568;2023-12-20T10:00:39;0.80;;;0.80;;
6282;SDS011;3174;53.486;9.568;2023-12-20T10:03:09;2.07;;;0.83;;
6282;SDS011;3174;53.486;9.568;2023-12-20T10:05:37;3.53;;;1.07;;
6282;SDS011;3174;53.486;9.568;2023-12-20T10:08:07;1.63;;;0.80;;
6282;SDS011;3174;53.486;9.568;2023-12-20T10:10:35;1.37;;;0.97;;
6282;SDS011;3174;53.486;9.568;2023-12-20T10:13:13;2.03;;;0.77;;
6282;SDS011;3174;53.486;9.568;2023-12-20T10:15:44;0.70;;;0.67;;
6282;SDS011;3174;53.486;9.568;2023-12-20T10:18:12;0.90;;;0.70;;
6282;SDS011;3174;53.486;9.568;2023-12-20T10:20:41;1.17;;;0.70;;
6282;SDS011;3174;53.486;9.568;2023-12-20T10:23:10;3.50;;;0.80;;
6282;SDS011;3174;53.486;9.568;2023-12-20T10:25:38;2.93;;;0.90;;
6282;SDS011;3174;53.486;9.568;2023-12-20T10:28:08;4.33;;;1.03;;
6282;SDS011;3174;53.486;9.568;2023-12-20T10:30:38;1.63;;;0.77;;
6282;SDS011;3174;53.486;9.568;2023-12-20T10:33:08;2.63;;;0.93;;
6282;SDS011;3174;53.486;9.568;2023-12-20T10:35:38;2.83;;;0.93;;
6282;SDS011;3174;53.486;9.568;2023-12-20T10:38:11;3.97;;;1.07;;
6282;SDS011;3174;53.486;9.568;2023-12-20T10:40:40;2.27;;;0.87;;
6282;SDS011;3174;53.486;9.568;2023-12-20T10:43:09;0.70;;;0.70;;
6282;SDS011;3174;53.486;9.568;2023-12-20T10:45:38;1.90;;;0.70;;
6282;SDS011;3174;53.486;9.568;2023-12-20T10:48:07;5.30;;;1.00;;
6282;SDS011;3174;53.486;9.568;2023-12-20T10:50:38;2.13;;;1.20;;
6282;SDS011;3174;53.486;9.568;2023-12-20T10:53:06;0.87;;;0.80;;
6282;SDS011;3174;53.486;9.568;2023-12-20T10:55:35;5.07;;;0.80;;
6282;SDS011;3174;53.486;9.568;2023-12-20T10:58:06;5.70;;;1.30;;
6282;SDS011;3174;53.486;9.568;2023-12-20T11:00:36;1.93;;;1.00;;
6282;SDS011;3174;53.486;9.568;2023-12-20T11:03:09;3.77;;;1.20;;
6282;SDS011;3174;53.486;9.568;2023-12-20T11:05:40;4.53;;;1.13;;
6282;SDS011;3174;53.486;9.568;2023-12-20T11:08:16;1.00;;;0.97;;
6282;SDS011;3174;53.486;9.568;2023-12-20T11:10:51;5.77;;;1.20;;
6282;SDS011;3174;53.486;9.568;2023-12-20T11:13:26;4.40;;;1.00;;
6282;SDS011;3174;53.486;9.568;2023-12-20T11:15:56;4.53;;;1.40;;
6282;SDS011;3174;53.486;9.568;2023-12-20T11:18:29;4.83;;;1.10;;
6282;SDS011;3174;53.486;9.568;2023-12-20T11:21:00;2.20;;;1.10;;
6282;SDS011;3174;53.486;9.568;2023-12-20T11:23:29;4.47;;;1.30;;
6282;SDS011;3174;53.486;9.568;2023-12-20T11:25:59;4.63;;;1.23;;
6282;SDS011;3174;53.486;9.568;2023-12-20T11:28:28;1.10;;;1.00;;
6282;SDS011;3174;53.486;9.568;2023-12-20T11:30:56;2.43;;;0.93;;
6282;SDS011;3174;53.486;9.568;2023-12-20T11:33:26;5.80;;;1.27;;
6282;SDS011;3174;53.486;9.568;2023-12-20T11:35:59;1.43;;;1.13;;
6282;SDS011;3174;53.486;9.568;2023-12-20T11:38:27;5.40;;;1.30;;
6282;SDS011;3174;53.486;9.568;2023-12-20T11:40:55;2.87;;;1.30;;
6282;SDS011;3174;53.486;9.568;2023-12-20T11:43:30;2.93;;;1.10;;
6282;SDS011;3174;53.486;9.568;2023-12-20T11:46:03;3.37;;;1.10;;
6282;SDS011;3174;53.486;9.568;2023-12-20T11:48:34;6.53;;;1.30;;
6282;SDS011;3174;53.486;9.568;2023-12-20T11:51:08;2.33;;;1.30;;
6282;SDS011;3174;53.486;9.568;2023-12-20T11:53:36;2.27;;;1.20;;
6282;SDS011;3174;53.486;9.568;2023-12-20T11:56:05;4.07;;;1.30;;
6282;SDS011;3174;53.486;9.568;2023-12-20T11:58:34;1.60;;;1.20;;
6282;SDS011;3174;53.486;9.568;2023-12-20T12:01:02;3.63;;;1.10;;
6282;SDS011;3174;53.486;9.568;2023-12-20T12:03:36;2.93;;;0.90;;
6282;SDS011;3174;53.486;9.568;2023-12-20T12:06:04;2.57;;;1.40;;
6282;SDS011;3174;53.486;9.568;2023-12-20T12:08:35;4.97;;;1.20;;
6282;SDS011;3174;53.486;9.568;2023-12-20T12:11:03;3.70;;;1.10;;
6282;SDS011;3174;53.486;9.568;2023-12-20T12:13:31;3.23;;;1.40;;
6282;SDS011;3174;53.486;9.568;2023-12-20T12:15:59;2.77;;;1.30;;
6282;SDS011;3174;53.486;9.568;2023-12-20T12:18:27;4.67;;;1.20;;
6282;SDS011;3174;53.486;9.568;2023-12-20T12:21:01;5.43;;;1.57;;
6282;SDS011;3174;53.486;9.568;2023-12-20T12:23:38;2.30;;;1.50;;
6282;SDS011;3174;53.486;9.568;2023-12-20T12:26:06;2.10;;;1.10;;
6282;SDS011;3174;53.486;9.568;2023-12-20T12:28:35;6.07;;;1.40;;
6282;SDS011;3174;53.486;9.568;2023-12-20T12:31:03;4.03;;;1.07;;
6282;SDS011;3174;53.486;9.568;2023-12-20T12:33:31;6.77;;;1.30;;
6282;SDS011;3174;53.486;9.568;2023-12-20T12:36:01;4.97;;;1.27;;
6282;SDS011;3174;53.486;9.568;2023-12-20T12:38:31;4.73;;;1.70;;
6282;SDS011;3174;53.486;9.568;2023-12-20T12:41:00;5.50;;;1.60;;
6282;SDS011;3174;53.486;9.568;2023-12-20T12:43:28;5.57;;;1.40;;
6282;SDS011;3174;53.486;9.568;2023-12-20T12:45:59;4.50;;;1.60;;
6282;SDS011;3174;53.486;9.568;2023-12-20T12:48:28;3.83;;;1.40;;
6282;SDS011;3174;53.486;9.568;2023-12-20T12:50:56;4.57;;;1.83;;
6282;SDS011;3174;53.486;9.568;2023-12-20T12:53:27;2.67;;;1.30;;
6282;SDS011;3174;53.486;9.568;2023-12-20T12:55:55;6.10;;;1.63;;
6282;SDS011;3174;53.486;9.568;2023-12-20T12:58:23;6.57;;;1.90;;
6282;SDS011;3174;53.486;9.568;2023-12-20T13:00:52;6.70;;;2.00;;
6282;SDS011;3174;53.486;9.568;2023-12-20T13:03:20;6.40;;;1.83;;
6282;SDS011;3174;53.486;9.568;2023-12-20T13:05:48;8.53;;;1.77;;
6282;SDS011;3174;53.486;9.568;2023-12-20T13:08:16;7.17;;;1.60;;
6282;SDS011;3174;53.486;9.568;2023-12-20T13:10:46;4.13;;;1.70;;
6282;SDS011;3174;53.486;9.568;2023-12-20T13:13:14;5.90;;;1.73;;
6282;SDS011;3174;53.486;9.568;2023-12-20T13:15:42;16.13;;;2.63;;
6282;SDS011;3174;53.486;9.568;2023-12-20T13:18:14;20.03;;;2.77;;
6282;SDS011;3174;53.486;9.568;2023-12-20T13:20:42;14.57;;;2.33;;
6282;SDS011;3174;53.486;9.568;2023-12-20T13:23:10;10.93;;;2.00;;
6282;SDS011;3174;53.486;9.568;2023-12-20T13:25:39;9.43;;;1.97;;
6282;SDS011;3174;53.486;9.568;2023-12-20T13:28:08;7.63;;;2.00;;
6282;SDS011;3174;53.486;9.568;2023-12-20T13:30:36;7.83;;;1.87;;
6282;SDS011;3174;53.486;9.568;2023-12-20T13:33:05;7.17;;;2.20;;
6282;SDS011;3174;53.486;9.568;2023-12-20T13:35:33;9.07;;;2.20;;
6282;SDS011;3174;53.486;9.568;2023-12-20T13:38:02;8.23;;;1.80;;
6282;SDS011;3174;53.486;9.568;2023-12-20T13:40:31;9.37;;;2.13;;
6282;SDS011;3174;53.486;9.568;2023-12-20T13:42:59;9.67;;;2.20;;
6282;SDS011;3174;53.486;9.568;2023-12-20T13:45:28;14.07;;;2.70;;
6282;SDS011;3174;53.486;9.568;2023-12-20T13:47:56;10.23;;;2.03;;
6282;SDS011;3174;53.486;9.568;2023-12-20T13:50:25;14.97;;;3.23;;
6282;SDS011;3174;53.486;9.568;2023-12-20T13:52:54;6.50;;;1.80;;
6282;SDS011;3174;53.486;9.568;2023-12-20T13:55:22;7.20;;;2.10;;
6282;SDS011;3174;53.486;9.568;2023-12-20T13:57:51;16.33;;;2.57;;
6282;SDS011;3174;53.486;9.568;2023-12-20T14:00:21;9.67;;;2.63;;
6282;SDS011;3174;53.486;9.568;2023-12-20T14:02:51;8.23;;;2.17;;
6282;SDS011;3174;53.486;9.568;2023-12-20T14:05:19;8.87;;;2.27;;
6282;SDS011;3174;53.486;9.568;2023-12-20T14:07:52;10.60;;;2.40;;
6282;SDS011;3174;53.486;9.568;2023-12-20T14:10:20;9.57;;;2.20;;
6282;SDS011;3174;53.486;9.568;2023-12-20T14:12:48;8.63;;;2.17;;
6282;SDS011;3174;53.486;9.568;2023-12-20T14:15:16;7.23;;;2.23;;
6282;SDS011;3174;53.486;9.568;2023-12-20T14:17:44;9.10;;;2.00;;
6282;SDS011;3174;53.486;9.568;2023-12-20T14:20:14;8.67;;;2.20;;
6282;SDS011;3174;53.486;9.568;2023-12-20T14:22:43;9.23;;;2.97;;
6282;SDS011;3174;53.486;9.568;2023-12-20T14:25:11;12.80;;;3.20;;
6282;SDS011;3174;53.486;9.568;2023-12-20T14:27:39;8.20;;;2.97;;
6282;SDS011;3174;53.486;9.568;2023-12-20T14:30:11;11.90;;;2.43;;
6282;SDS011;3174;53.486;9.568;2023-12-20T14:32:41;9.73;;;2.70;;
6282;SDS011;3174;53.486;9.568;2023-12-20T14:35:10;6.80;;;2.83;;
6282;SDS011;3174;53.486;9.568;2023-12-20T14:37:40;10.73;;;2.30;;
6282;SDS011;3174;53.486;9.568;2023-12-20T14:40:08;10.50;;;2.47;;
6282;SDS011;3174;53.486;9.568;2023-12-20T14:42:42;12.73;;;3.13;;
6282;SDS011;3174;53.486;9.568;2023-12-20T14:45:10;13.17;;;3.07;;
6282;SDS011;3174;53.486;9.568;2023-12-20T14:47:39;12.47;;;2.60;;
6282;SDS011;3174;53.486;9.568;2023-12-20T14:50:08;3.03;;;1.77;;
6282;SDS011;3174;53.486;9.568;2023-12-20T14:52:37;7.93;;;2.77;;
6282;SDS011;3174;53.486;9.568;2023-12-20T14:55:06;6.17;;;2.17;;
6282;SDS011;3174;53.486;9.568;2023-12-20T14:57:35;13.43;;;2.97;;
6282;SDS011;3174;53.486;9.568;2023-12-20T15:00:03;7.30;;;2.20;;
6282;SDS011;3174;53.486;9.568;2023-12-20T15:02:32;10.13;;;2.23;;
6282;SDS011;3174;53.486;9.568;2023-12-20T15:05:00;6.33;;;1.93;;
6282;SDS011;3174;53.486;9.568;2023-12-20T15:07:28;14.70;;;2.67;;
6282;SDS011;3174;53.486;9.568;2023-12-20T15:09:56;4.37;;;2.10;;
6282;SDS011;3174;53.486;9.568;2023-12-20T15:12:26;6.70;;;2.43;;
6282;SDS011;3174;53.486;9.568;2023-12-20T15:14:54;17.87;;;5.87;;
6282;SDS011;3174;53.486;9.568;2023-12-20T15:17:22;10.80;;;2.60;;
6282;SDS011;3174;53.486;9.568;2023-12-20T15:19:52;9.70;;;2.30;;
6282;SDS011;3174;53.486;9.568;2023-12-20T15:22:20;8.27;;;2.00;;
6282;SDS011;3174;53.486;9.568;2023-12-20T15:24:48;6.20;;;2.00;;
6282;SDS011;3174;53.486;9.568;2023-12-20T15:27:18;8.07;;;2.30;;